createdAt,value
2023-01-11T00:01:07.583Z,0.7
2023-01-11T00:07:27.552Z,0.7
2023-01-11T00:13:50.619Z,0.1
2023-01-11T00:20:10.654Z,0.1
2023-01-11T00:26:33.589Z,0.4
2023-01-11T00:32:53.511Z,0.4
2023-01-11T00:39:16.519Z,0.1
2023-01-11T00:45:36.585Z,0.1
2023-01-11T00:51:59.524Z,0.1
2023-01-11T00:58:19.532Z,0.1
2023-01-11T01:04:42.615Z,0.3
2023-01-11T01:11:02.494Z,0.3
2023-01-11T01:17:25.709Z,3.1
2023-01-11T01:23:45.641Z,3.1
2023-01-11T01:30:08.575Z,0.1
2023-01-11T01:36:28.616Z,0.1
2023-01-11T01:42:51.592Z,0.2
2023-01-11T01:49:11.517Z,0.2
2023-01-11T01:55:34.581Z,0.3
2023-01-11T02:01:54.615Z,0.3
2023-01-11T02:08:17.552Z,0.1
2023-01-11T02:14:37.622Z,0.1
2023-01-11T02:21:00.607Z,0.3
2023-01-11T02:27:20.539Z,0.3
2023-01-11T02:33:43.584Z,0.8
2023-01-11T02:40:03.571Z,0.8
2023-01-11T02:46:26.641Z,0.2
2023-01-11T02:52:46.600Z,0.2
2023-01-11T02:59:09.590Z,0.3
2023-01-11T03:05:29.532Z,0.3
2023-01-11T03:11:52.570Z,0.3
2023-01-11T03:18:12.513Z,0.3
2023-01-11T03:24:35.606Z,0.6
2023-01-11T03:30:55.567Z,0.6
2023-01-11T03:37:18.621Z,0.3
2023-01-11T03:43:38.556Z,0.3
2023-01-11T03:50:01.633Z,0.3
2023-01-11T03:56:21.505Z,0.3
2023-01-11T04:02:44.609Z,0.6
2023-01-11T04:09:04.515Z,0.6
2023-01-11T04:15:27.532Z,0.1
2023-01-11T04:21:47.535Z,0.1
2023-01-11T04:37:22.498Z,0.1
2023-01-11T04:43:42.552Z,0.1
2023-01-11T04:50:05.612Z,0.1
2023-01-11T04:56:25.553Z,0.1
2023-01-11T05:02:48.600Z,0.1
2023-01-11T05:09:08.534Z,0.1
2023-01-11T05:15:31.546Z,0.3
2023-01-11T05:21:51.527Z,0.3
2023-01-11T05:28:14.547Z,0.1
2023-01-11T05:34:34.574Z,0.1
2023-01-11T05:40:57.573Z,0.1
2023-01-11T05:47:17.532Z,0.1
2023-01-11T05:53:40.539Z,1.2
2023-01-11T06:00:00.598Z,1.2
2023-01-11T06:06:23.584Z,0.2
2023-01-11T06:12:43.577Z,0.2
2023-01-11T06:19:06.564Z,0.1
2023-01-11T06:25:26.526Z,0.1
2023-01-11T06:31:49.513Z,0.2
2023-01-11T06:38:09.511Z,0.2
2023-01-11T06:44:32.579Z,0.3
2023-01-11T06:50:52.512Z,0.3
2023-01-11T06:57:15.576Z,0.2
2023-01-11T07:03:35.594Z,0.2
2023-01-11T07:09:58.588Z,0.4
2023-01-11T07:16:18.613Z,0.4
2023-01-11T07:22:41.516Z,1.2
2023-01-11T07:29:01.546Z,1.2
2023-01-11T07:35:24.556Z,0.1
2023-01-11T07:41:44.490Z,0.1
2023-01-11T07:48:07.666Z,0.6
2023-01-11T07:54:27.666Z,0.6
2023-01-11T08:00:50.593Z,0.5
2023-01-11T08:07:10.577Z,0.5
2023-01-11T08:13:33.790Z,0.4
2023-01-11T08:19:53.586Z,0.4
2023-01-11T08:26:16.574Z,0.7
2023-01-11T08:32:36.554Z,0.7
2023-01-11T08:38:59.568Z,0.5
2023-01-11T08:45:19.654Z,0.5
2023-01-11T08:51:42.600Z,1.2
2023-01-11T08:58:02.497Z,1.2
2023-01-11T09:04:25.944Z,1
2023-01-11T09:10:45.591Z,1
2023-01-11T09:17:08.572Z,0.4
2023-01-11T09:23:28.625Z,0.4
2023-01-11T09:29:51.586Z,0.3
2023-01-11T09:36:11.542Z,0.3
2023-01-11T09:42:34.608Z,0.1
2023-01-11T09:48:54.546Z,0.1
2023-01-11T10:05:59.104Z,1.2
2023-01-11T10:19:04.534Z,0.9
2023-01-11T10:25:01.689Z,0.9
2023-01-11T10:31:24.615Z,0.9
2023-01-11T10:37:44.627Z,0.9
2023-01-11T10:44:07.753Z,0.6
2023-01-11T10:50:27.559Z,0.6
2023-01-11T10:57:02.083Z,2.6
2023-01-11T11:03:10.635Z,2.6
2023-01-11T11:09:33.988Z,2.1
2023-01-11T11:15:53.822Z,2.1
2023-01-11T11:22:16.906Z,2
2023-01-11T11:28:36.603Z,2
2023-01-11T11:34:59.507Z,3.3
2023-01-11T11:41:19.695Z,3.3
2023-01-11T11:47:42.558Z,1.3
2023-01-11T11:54:02.571Z,1.3
2023-01-11T12:00:25.630Z,0.8
2023-01-11T12:06:46.186Z,0.8
2023-01-11T12:13:08.648Z,1
2023-01-11T12:19:28.589Z,1
2023-01-11T12:25:51.517Z,1.1
2023-01-11T12:32:11.591Z,1.1
2023-01-11T12:38:34.518Z,2.5
2023-01-11T12:44:54.634Z,2.5
2023-01-11T12:51:17.581Z,0.7
2023-01-11T12:57:37.663Z,0.7
2023-01-11T13:04:00.607Z,1.7
2023-01-11T13:10:20.598Z,1.7
2023-01-11T13:16:43.630Z,1.3
2023-01-11T13:23:03.592Z,1.3
2023-01-11T13:29:26.832Z,1.1
2023-01-11T13:35:46.606Z,1.1
2023-01-11T13:42:09.513Z,1.1
2023-01-11T13:48:29.631Z,1.1
2023-01-11T13:54:52.631Z,2
2023-01-11T14:01:12.519Z,2
2023-01-11T14:07:35.599Z,0.9
2023-01-11T14:13:55.553Z,0.9
2023-01-11T14:20:18.802Z,1.4
2023-01-11T14:26:38.637Z,1.4
2023-01-11T14:33:01.586Z,2.1
2023-01-11T14:39:21.609Z,2.1
2023-01-11T14:45:44.569Z,2.1
2023-01-11T14:52:04.648Z,2.1
2023-01-11T14:58:27.571Z,1.5
2023-01-11T15:04:47.573Z,1.5
2023-01-11T15:11:10.673Z,1
2023-01-11T15:27:36.247Z,1.3
2023-01-11T15:33:59.140Z,1.1
2023-01-11T15:40:19.869Z,1.1
2023-01-11T15:46:42.879Z,3.2
2023-01-11T15:53:02.585Z,3.2
2023-01-11T15:59:25.585Z,1
2023-01-11T16:05:45.762Z,1
2023-01-11T16:12:08.543Z,3.6
2023-01-11T16:18:28.596Z,3.6
2023-01-11T16:24:51.581Z,1.5
2023-01-11T16:31:11.633Z,1.5
2023-01-11T16:37:34.549Z,3.5
2023-01-11T16:43:54.528Z,3.5
2023-01-11T16:50:17.800Z,2.4
2023-01-11T16:56:37.587Z,2.4
2023-01-11T17:03:00.640Z,3.2
2023-01-11T17:09:20.711Z,3.2
2023-01-11T17:15:43.935Z,1.2
2023-01-11T17:22:03.646Z,1.2
2023-01-11T17:28:26.593Z,1.2
2023-01-11T17:34:46.796Z,1.2
2023-01-11T17:41:09.867Z,0.8
2023-01-11T17:47:29.663Z,0.8
2023-01-11T17:53:52.580Z,0.8
2023-01-11T18:00:12.585Z,0.8
2023-01-11T18:06:35.590Z,0.9
2023-01-11T18:12:55.570Z,0.9
2023-01-11T18:19:18.605Z,1.3
2023-01-11T18:25:38.631Z,1.3
2023-01-11T18:32:01.510Z,0.9
2023-01-11T18:38:21.618Z,0.9
2023-01-11T18:44:44.667Z,1.8
2023-01-11T18:51:04.596Z,1.8
2023-01-11T18:57:27.626Z,0.4
2023-01-11T19:03:47.500Z,0.4
2023-01-11T19:10:10.605Z,0.2
2023-01-11T19:16:30.517Z,0.2
2023-01-11T19:22:53.588Z,0.8
2023-01-11T19:29:13.527Z,0.8
2023-01-11T19:35:36.977Z,1.7
2023-01-11T19:41:56.659Z,1.7
2023-01-11T19:48:19.527Z,0.7
2023-01-11T19:54:39.561Z,0.7
2023-01-11T20:01:02.953Z,1.1
2023-01-11T20:07:22.801Z,1.1
2023-01-11T20:13:45.750Z,2.2
2023-01-11T20:36:33.485Z,4.2
2023-01-11T20:42:53.802Z,4.2
2023-01-11T20:49:16.707Z,0.5
2023-01-11T20:55:36.804Z,0.5
2023-01-11T21:01:59.729Z,0.9
2023-01-11T21:08:19.660Z,0.9
2023-01-11T21:14:41.291Z,1
2023-01-11T21:21:01.619Z,1
2023-01-11T21:27:24.644Z,0.9
2023-01-11T21:33:44.609Z,0.9
2023-01-11T21:40:07.587Z,1
2023-01-11T21:46:27.593Z,1
2023-01-11T21:52:50.825Z,0.3
2023-01-11T21:59:10.590Z,0.3
2023-01-11T22:05:33.523Z,0.4
2023-01-11T22:11:53.669Z,0.4
2023-01-11T22:18:16.532Z,1.6
2023-01-11T22:24:36.552Z,1.6
2023-01-11T22:30:59.618Z,1.4
2023-01-11T22:37:19.525Z,1.4
2023-01-11T22:43:42.594Z,0.2
2023-01-11T22:50:02.528Z,0.2
2023-01-11T22:56:25.580Z,1
2023-01-11T23:21:57.527Z,2
2023-01-11T23:28:17.510Z,2
2023-01-11T23:34:40.536Z,2
2023-01-11T23:41:00.549Z,2
2023-01-11T23:47:23.515Z,0.2
2023-01-11T23:53:43.561Z,0.2
